カンザスシティ の空港の天気 - METARとTAF

カンザスシティ国際空港 ( KMCI / MCI ) - アメリカ ミズーリ州カンザスシティ
飛行場実況気象(Metar)
観測時間04/25 09:32 CDT (04/25 14:32 UTC)
風向・風速北 5m/s
視程10km以上
天気現象弱い雨
少しの雲 雲底高度 240m
全天の4割程度の雲 雲底高度 1430m
全天を覆う雲 雲底高度 1830m
気温9.4℃
湿度93%
気圧1022hPa
METARKMCI 251432Z 35010KT 7SM -RA FEW008 SCT047 OVC060 09/08 A3017 RMK AO2 P0000 T00940083
過去の天気等 Google飛行場航空写真 Wunderground天気予報

過去48時間のMETAR

飛行場予報(TAF)
発表時間: 4/25 06:20 CDT (4/25 11:20 UTC)
予報対象時間: 25日7時 CDT ~ 26日7時 CDT
風向・風速北北西 3m/s
視程10km以上
天気現象周辺でしゅう雨
全天を覆う雲 雲底高度 2,130m
25日9時 CDT から
風向・風速北 5m/s
視程10km以上
天気現象弱い雨
全天を覆う雲 雲底高度 910m
25日12時 CDT から
風向・風速北 5m/s
視程6,440m
天気現象弱い雨
全天を覆う雲 雲底高度 460m
25日16時 CDT から
風向・風速北 3m/s
視程10km以上
天気現象周辺でしゅう雨
全天を覆う雲 雲底高度 610m
25日18時 CDT から
風向・風速北北西 2m/s
視程10km以上
全天を覆う雲 雲底高度 1,070m
26日1時 CDT から
風向・風速北北西 3m/s
視程10km以上
少しの雲 雲底高度 4,570m
KMCI 251120Z 2512/2612 33005KT P6SM VCSH OVC070
FM251400 01010KT 6SM -RA OVC030
FM251700 01010KT 4SM -RA OVC015
FM252100 36006KT P6SM VCSH OVC020
FM252300 34004KT P6SM OVC035
FM260600 34005KT P6SM FEW150